createdAt,value
2023-05-11T00:01:33.702Z,19.13
2023-05-11T00:04:00.767Z,19.90
2023-05-11T00:06:27.561Z,18.97
2023-05-11T00:08:54.285Z,17.80
2023-05-11T00:11:21.137Z,17.90
2023-05-11T00:13:47.969Z,22.00
2023-05-11T00:16:14.803Z,19.07
2023-05-11T00:18:41.725Z,17.83
2023-05-11T00:21:08.616Z,23.40
2023-05-11T00:23:35.376Z,20.77
2023-05-11T00:26:02.005Z,19.17
2023-05-11T00:28:28.602Z,24.10
2023-05-11T00:30:58.485Z,23.23
2023-05-11T00:33:25.848Z,27.20
2023-05-11T00:35:52.582Z,26.33
2023-05-11T00:38:19.646Z,28.30
2023-05-11T00:40:46.329Z,33.90
2023-05-11T00:43:12.975Z,34.97
2023-05-11T00:45:40.282Z,37.03
2023-05-11T00:48:07.452Z,36.37
2023-05-11T00:50:34.846Z,32.90
2023-05-11T00:53:01.678Z,31.30
2023-05-11T00:55:29.000Z,30.77
2023-05-11T00:57:55.746Z,29.63
2023-05-11T01:00:22.513Z,29.13
2023-05-11T01:02:49.319Z,26.33
2023-05-11T01:05:16.088Z,24.87
2023-05-11T01:08:17.486Z,25.67
2023-05-11T01:11:02.401Z,25.03
2023-05-11T01:13:39.334Z,21.90
2023-05-11T01:16:16.345Z,21.60
2023-05-11T01:18:51.610Z,21.70
2023-05-11T01:21:18.734Z,19.60
2023-05-11T01:24:03.984Z,17.67
2023-05-11T01:26:59.268Z,21.47
2023-05-11T01:29:32.110Z,20.40
2023-05-11T01:32:02.032Z,20.30
2023-05-11T01:34:31.820Z,21.47
2023-05-11T01:37:04.949Z,21.07
2023-05-11T01:39:44.648Z,18.90
2023-05-11T01:42:14.050Z,19.80
2023-05-11T01:44:45.830Z,19.60
2023-05-11T01:47:13.699Z,22.00
2023-05-11T01:49:44.025Z,19.70
2023-05-11T01:52:11.665Z,22.00
2023-05-11T01:54:40.014Z,21.13
2023-05-11T01:57:08.277Z,22.10
2023-05-11T01:59:37.796Z,18.23
2023-05-11T02:02:04.911Z,20.80
2023-05-11T02:04:32.249Z,20.60
2023-05-11T02:07:01.894Z,24.40
2023-05-11T02:09:31.655Z,26.30
2023-05-11T02:12:00.496Z,26.57
2023-05-11T02:14:29.826Z,25.60
2023-05-11T02:16:57.761Z,27.10
2023-05-11T02:19:26.340Z,30.10
2023-05-11T02:21:54.180Z,32.27
2023-05-11T02:24:21.375Z,27.33
2023-05-11T02:26:48.011Z,29.67
2023-05-11T02:29:14.786Z,31.27
2023-05-11T02:31:46.150Z,29.60
2023-05-11T02:34:38.771Z,27.07
2023-05-11T02:37:10.331Z,27.23
2023-05-11T02:39:39.774Z,29.80
2023-05-11T02:42:12.871Z,31.23
2023-05-11T02:44:45.214Z,28.77
2023-05-11T02:47:14.932Z,29.50
2023-05-11T02:49:44.075Z,32.63
2023-05-11T02:52:13.865Z,32.53
2023-05-11T02:54:44.618Z,33.00
2023-05-11T02:57:11.596Z,36.07
2023-05-11T02:59:38.422Z,34.03
2023-05-11T03:02:05.779Z,37.07
2023-05-11T03:04:33.213Z,36.20
2023-05-11T03:07:00.351Z,32.00
2023-05-11T03:09:27.012Z,31.27
2023-05-11T03:11:54.363Z,30.50
2023-05-11T03:14:21.821Z,34.10
2023-05-11T03:16:49.226Z,27.80
2023-05-11T03:19:16.942Z,29.90
2023-05-11T03:21:44.727Z,33.00
2023-05-11T03:24:12.566Z,28.47
2023-05-11T03:26:40.473Z,29.87
2023-05-11T03:29:08.729Z,34.47
2023-05-11T03:31:35.502Z,27.10
2023-05-11T03:34:02.256Z,30.93
2023-05-11T03:36:33.474Z,29.63
2023-05-11T03:39:02.896Z,28.83
2023-05-11T03:41:34.018Z,33.37
2023-05-11T03:44:05.507Z,31.23
2023-05-11T03:46:35.745Z,31.60
2023-05-11T03:49:04.970Z,34.37
2023-05-11T03:51:34.179Z,33.57
2023-05-11T03:54:01.534Z,31.33
2023-05-11T03:56:28.396Z,31.93
2023-05-11T03:58:55.214Z,33.30
2023-05-11T04:01:22.735Z,36.33
2023-05-11T04:03:53.389Z,33.63
2023-05-11T04:06:21.442Z,37.60
2023-05-11T04:08:55.675Z,35.33
2023-05-11T04:11:22.805Z,38.60
2023-05-11T04:13:49.418Z,37.63
2023-05-11T04:16:16.107Z,34.53
2023-05-11T04:18:42.744Z,35.37
2023-05-11T04:21:09.420Z,40.23
2023-05-11T04:23:36.068Z,37.93
2023-05-11T04:26:02.766Z,36.13
2023-05-11T04:28:29.432Z,31.60
2023-05-11T04:30:57.068Z,34.07
2023-05-11T04:33:24.340Z,36.10
2023-05-11T04:35:52.127Z,33.23
2023-05-11T04:38:19.712Z,39.00
2023-05-11T04:40:47.824Z,38.47
2023-05-11T04:43:15.529Z,44.27
2023-05-11T04:45:46.847Z,36.77
2023-05-11T04:48:13.809Z,40.93
2023-05-11T04:50:40.628Z,46.50
2023-05-11T04:53:08.072Z,39.73
2023-05-11T04:55:34.747Z,35.33
2023-05-11T04:58:01.515Z,41.53
2023-05-11T05:00:28.150Z,46.07
2023-05-11T05:02:54.796Z,41.77
2023-05-11T05:05:21.592Z,46.00
2023-05-11T05:07:48.228Z,51.90
2023-05-11T05:10:14.833Z,49.07
2023-05-11T05:12:41.661Z,46.80
2023-05-11T05:15:09.341Z,46.70
2023-05-11T05:17:36.193Z,57.67
2023-05-11T05:20:04.428Z,50.73
2023-05-11T05:22:31.829Z,45.90
2023-05-11T05:24:58.540Z,43.77
2023-05-11T05:27:25.576Z,44.20
2023-05-11T05:29:52.863Z,49.80
2023-05-11T05:32:20.258Z,43.77
2023-05-11T05:34:47.702Z,42.47
2023-05-11T05:37:14.896Z,42.27
2023-05-11T05:39:41.591Z,45.93
2023-05-11T05:42:09.178Z,40.73
2023-05-11T05:44:35.936Z,42.07
2023-05-11T05:47:02.806Z,42.60
2023-05-11T05:49:32.604Z,46.07
2023-05-11T05:51:59.501Z,40.80
2023-05-11T05:54:27.045Z,40.00
2023-05-11T05:56:55.422Z,38.97
2023-05-11T05:59:24.139Z,36.47
2023-05-11T06:01:54.987Z,38.30
2023-05-11T06:04:23.266Z,36.10
2023-05-11T06:06:49.954Z,33.70
2023-05-11T06:09:16.591Z,32.23
2023-05-11T06:11:43.357Z,34.53
2023-05-11T06:14:10.684Z,33.43
2023-05-11T06:16:38.262Z,31.77
2023-05-11T06:19:05.232Z,35.47
2023-05-11T06:21:32.062Z,32.30
2023-05-11T06:23:58.701Z,30.57
2023-05-11T06:26:28.567Z,32.30
2023-05-11T06:28:55.868Z,35.67
2023-05-11T06:31:24.530Z,36.93
2023-05-11T06:33:52.222Z,36.33
2023-05-11T06:36:23.227Z,30.00
2023-05-11T06:38:50.257Z,33.63
2023-05-11T06:41:17.325Z,33.67
2023-05-11T06:43:44.004Z,36.67
2023-05-11T06:46:30.991Z,29.43
2023-05-11T06:48:57.865Z,36.93
2023-05-11T06:51:24.490Z,35.87
2023-05-11T06:53:51.101Z,28.40
2023-05-11T06:56:17.953Z,27.30
2023-05-11T06:58:44.550Z,30.87
2023-05-11T07:01:11.863Z,26.30
2023-05-11T07:03:38.590Z,26.00
2023-05-11T07:06:05.206Z,27.10
2023-05-11T07:08:33.619Z,21.70
2023-05-11T07:11:00.353Z,25.90
2023-05-11T07:13:27.008Z,30.10
2023-05-11T07:15:55.283Z,26.07
2023-05-11T07:18:24.051Z,26.37
2023-05-11T07:20:50.739Z,23.50
2023-05-11T07:23:17.526Z,27.93
2023-05-11T07:25:44.178Z,29.00
2023-05-11T07:28:10.822Z,25.30
2023-05-11T07:30:37.447Z,26.10
2023-05-11T07:33:04.290Z,24.43
2023-05-11T07:35:30.947Z,26.47
2023-05-11T07:37:57.670Z,25.70
2023-05-11T07:40:24.713Z,29.60
2023-05-11T07:42:51.351Z,23.00
2023-05-11T07:45:17.970Z,25.80
2023-05-11T07:47:44.906Z,25.30
2023-05-11T07:50:12.634Z,22.93
2023-05-11T07:52:39.509Z,23.43
2023-05-11T07:55:06.529Z,25.17
2023-05-11T07:57:33.136Z,24.70
2023-05-11T07:59:59.802Z,25.20
2023-05-11T08:02:26.465Z,22.00
2023-05-11T08:04:53.275Z,17.50
2023-05-11T08:07:19.980Z,17.77
2023-05-11T08:09:46.631Z,16.40
2023-05-11T08:12:13.279Z,20.17
2023-05-11T08:14:39.891Z,17.70
2023-05-11T08:17:06.543Z,16.83
2023-05-11T08:19:33.167Z,13.10
2023-05-11T08:22:01.189Z,14.13
2023-05-11T08:24:27.801Z,16.30
2023-05-11T08:26:54.449Z,11.80
2023-05-11T08:29:21.069Z,12.43
2023-05-11T08:31:49.274Z,8.63
2023-05-11T08:34:19.565Z,10.50
2023-05-11T08:36:46.968Z,10.80
2023-05-11T08:39:13.872Z,10.80
2023-05-11T08:41:41.967Z,11.53
2023-05-11T08:44:10.539Z,9.70
2023-05-11T08:46:40.182Z,9.73
2023-05-11T08:49:08.213Z,9.83
2023-05-11T08:51:34.914Z,11.40
2023-05-11T08:54:01.533Z,9.70
2023-05-11T08:56:29.548Z,14.17
2023-05-11T08:58:57.378Z,11.93
2023-05-11T09:01:27.759Z,6.93
2023-05-11T09:03:56.210Z,9.60
2023-05-11T09:06:26.506Z,13.67
2023-05-11T09:08:54.052Z,10.70
2023-05-11T09:11:21.455Z,10.87
2023-05-11T09:13:48.599Z,9.60
2023-05-11T09:16:28.273Z,10.37
2023-05-11T09:19:02.392Z,8.87
2023-05-11T09:21:30.964Z,13.10
2023-05-11T09:24:01.195Z,10.67
2023-05-11T09:26:29.540Z,13.00
2023-05-11T09:29:02.773Z,10.70
2023-05-11T09:31:43.327Z,10.70
2023-05-11T09:34:20.383Z,11.37
2023-05-11T09:36:52.059Z,10.50
2023-05-11T09:39:35.307Z,9.23
2023-05-11T09:42:14.074Z,9.83
2023-05-11T09:44:43.752Z,8.57
2023-05-11T09:47:16.653Z,9.00
2023-05-11T09:49:44.917Z,9.87
2023-05-11T09:52:12.780Z,10.00
2023-05-11T09:54:47.986Z,9.63
2023-05-11T09:57:29.692Z,7.80
2023-05-11T09:59:58.207Z,11.17
2023-05-11T10:02:30.190Z,11.03
2023-05-11T10:04:59.279Z,14.30
2023-05-11T10:07:35.622Z,16.93
2023-05-11T10:10:06.944Z,14.03
2023-05-11T10:12:34.521Z,24.13
2023-05-11T10:15:03.762Z,15.63
2023-05-11T10:17:30.866Z,15.93
2023-05-11T10:19:58.508Z,19.37
2023-05-11T10:22:26.743Z,19.23
2023-05-11T10:24:54.326Z,15.20
2023-05-11T10:27:21.525Z,14.23
2023-05-11T10:29:48.854Z,17.97
2023-05-11T10:32:17.727Z,16.10
2023-05-11T10:34:46.418Z,14.93
2023-05-11T10:37:14.660Z,14.37
2023-05-11T10:39:42.506Z,16.03
2023-05-11T10:42:33.536Z,13.27
2023-05-11T10:45:25.918Z,15.37
2023-05-11T10:48:14.263Z,11.93
2023-05-11T10:51:01.854Z,14.00
2023-05-11T10:53:46.110Z,12.13
2023-05-11T10:56:30.928Z,14.20
2023-05-11T10:59:37.079Z,11.73
2023-05-11T11:02:04.155Z,10.63
2023-05-11T11:04:47.152Z,9.30
2023-05-11T11:07:18.033Z,9.37
2023-05-11T11:10:00.062Z,8.97
2023-05-11T11:12:29.398Z,10.50
2023-05-11T11:15:06.371Z,12.70
2023-05-11T11:17:35.042Z,11.20
2023-05-11T11:20:04.477Z,12.53
2023-05-11T11:22:38.593Z,13.13
2023-05-11T11:25:06.406Z,9.33
2023-05-11T11:27:45.339Z,12.53
2023-05-11T11:30:19.741Z,11.60
2023-05-11T11:32:51.028Z,10.70
2023-05-11T11:35:39.860Z,10.03
2023-05-11T11:38:08.332Z,10.47
2023-05-11T11:40:50.003Z,11.57
2023-05-11T11:43:26.980Z,11.27
2023-05-11T11:45:59.520Z,14.60
2023-05-11T11:48:31.720Z,14.83
2023-05-11T11:51:10.259Z,12.47
2023-05-11T11:53:40.809Z,13.30
2023-05-11T11:56:09.001Z,13.97
2023-05-11T11:58:41.447Z,12.63
2023-05-11T12:01:19.860Z,13.87
2023-05-11T12:03:54.122Z,13.93
2023-05-11T12:06:24.441Z,14.87
2023-05-11T12:08:53.428Z,13.80
2023-05-11T12:11:23.058Z,16.70
2023-05-11T12:13:49.966Z,12.47
2023-05-11T12:16:18.732Z,12.00
2023-05-11T12:18:59.221Z,16.00
2023-05-11T12:21:29.208Z,17.97
2023-05-11T12:23:58.038Z,16.30
2023-05-11T12:26:26.282Z,17.10
2023-05-11T12:29:10.521Z,15.93
2023-05-11T12:31:38.667Z,16.50
2023-05-11T12:34:05.412Z,20.80
2023-05-11T12:36:33.271Z,17.73
2023-05-11T12:39:00.594Z,19.57
2023-05-11T12:41:27.438Z,17.87
2023-05-11T12:43:55.709Z,20.20
2023-05-11T12:46:23.312Z,21.37
2023-05-11T12:48:51.253Z,21.07
2023-05-11T12:51:48.850Z,20.03
2023-05-11T12:54:37.484Z,21.20
2023-05-11T12:57:05.722Z,24.40
2023-05-11T12:59:37.829Z,19.60
2023-05-11T13:02:17.948Z,18.47
2023-05-11T13:04:45.615Z,18.13
2023-05-11T13:07:13.680Z,16.57
2023-05-11T13:09:41.077Z,18.00
2023-05-11T13:12:18.974Z,15.70
2023-05-11T13:14:47.267Z,16.63
2023-05-11T13:17:28.916Z,21.97
2023-05-11T13:19:55.695Z,17.57
2023-05-11T13:22:22.290Z,19.83
2023-05-11T13:24:50.837Z,20.93
2023-05-11T13:27:17.440Z,17.60
2023-05-11T13:29:44.060Z,18.23
2023-05-11T13:32:12.280Z,16.50
2023-05-11T13:34:38.955Z,17.67
2023-05-11T13:37:05.597Z,25.30
2023-05-11T13:39:32.238Z,20.27
2023-05-11T13:41:58.851Z,21.40
2023-05-11T13:44:25.447Z,18.77
2023-05-11T13:46:52.201Z,17.70
2023-05-11T13:49:18.844Z,17.97
2023-05-11T13:51:45.709Z,24.47
2023-05-11T13:54:13.095Z,17.40
2023-05-11T13:56:39.782Z,18.20
2023-05-11T13:59:07.037Z,16.30
2023-05-11T14:01:33.700Z,15.50
2023-05-11T14:04:00.342Z,18.53
2023-05-11T14:06:27.018Z,16.33
2023-05-11T14:08:54.153Z,20.67
2023-05-11T14:11:21.395Z,18.77
2023-05-11T14:13:48.226Z,18.53
2023-05-11T14:16:15.059Z,19.20
2023-05-11T14:18:42.181Z,19.50
2023-05-11T14:21:08.851Z,21.43
2023-05-11T14:23:37.087Z,20.00
2023-05-11T14:26:06.447Z,22.63
2023-05-11T14:28:33.050Z,20.47
2023-05-11T14:30:59.824Z,24.27
2023-05-11T14:33:26.654Z,23.40
2023-05-11T14:35:53.719Z,22.07
2023-05-11T14:38:20.394Z,27.67
2023-05-11T14:40:47.243Z,25.30
2023-05-11T14:43:13.907Z,29.03
2023-05-11T14:45:40.837Z,22.20
2023-05-11T14:48:07.811Z,20.33
2023-05-11T14:50:34.812Z,24.13
2023-05-11T14:53:01.583Z,23.73
2023-05-11T14:55:28.299Z,24.60
2023-05-11T14:57:56.299Z,22.37
2023-05-11T15:00:22.981Z,27.90
2023-05-11T15:02:49.678Z,32.23
2023-05-11T15:05:16.586Z,25.20
2023-05-11T15:07:43.310Z,24.37
2023-05-11T15:10:10.148Z,28.33
2023-05-11T15:12:40.229Z,20.87
2023-05-11T15:15:07.860Z,23.10
2023-05-11T15:17:34.490Z,25.80
2023-05-11T15:20:01.088Z,23.23
2023-05-11T15:22:27.722Z,20.63
2023-05-11T15:24:54.384Z,26.10
2023-05-11T15:27:21.048Z,31.53
2023-05-11T15:29:49.470Z,27.30
2023-05-11T15:32:17.437Z,27.93
2023-05-11T15:34:58.682Z,27.30
2023-05-11T15:37:26.947Z,28.10
2023-05-11T15:39:53.633Z,25.57
2023-05-11T15:42:20.229Z,25.83
2023-05-11T15:44:47.205Z,33.83
2023-05-11T15:47:13.981Z,36.67
2023-05-11T15:49:40.761Z,39.30
2023-05-11T15:52:07.729Z,44.30
2023-05-11T15:54:36.040Z,42.77
2023-05-11T15:57:03.144Z,39.93
2023-05-11T15:59:32.363Z,46.83
2023-05-11T16:01:59.062Z,51.70
2023-05-11T16:04:25.717Z,48.73
2023-05-11T16:06:52.307Z,56.53
2023-05-11T16:09:18.971Z,50.97
2023-05-11T16:11:45.759Z,55.90
2023-05-11T16:14:12.476Z,51.40
2023-05-11T16:16:39.976Z,53.10
2023-05-11T16:19:07.465Z,55.33
2023-05-11T16:21:34.190Z,51.27
2023-05-11T16:24:00.979Z,36.70
2023-05-11T16:26:27.886Z,37.57
2023-05-11T16:28:54.489Z,33.37
2023-05-11T16:31:21.662Z,33.47
2023-05-11T16:33:48.852Z,24.60
2023-05-11T16:36:16.568Z,23.83
2023-05-11T16:38:43.404Z,24.40
2023-05-11T16:41:11.311Z,22.03
2023-05-11T16:43:41.636Z,22.47
2023-05-11T16:46:09.108Z,24.40
2023-05-11T16:48:35.885Z,23.13
2023-05-11T16:51:03.352Z,27.93
2023-05-11T16:53:30.057Z,21.30
2023-05-11T16:55:56.912Z,20.03
2023-05-11T16:58:24.477Z,15.80
2023-05-11T17:00:52.259Z,16.03
2023-05-11T17:03:19.359Z,17.63
2023-05-11T17:05:46.456Z,20.27
2023-05-11T17:08:13.155Z,18.07
2023-05-11T17:10:40.589Z,13.77
2023-05-11T17:13:07.391Z,18.03
2023-05-11T17:15:34.164Z,16.10
2023-05-11T17:18:00.892Z,21.90
2023-05-11T17:20:28.539Z,16.70
2023-05-11T17:22:55.708Z,20.47
2023-05-11T17:25:22.372Z,17.00
2023-05-11T17:27:49.167Z,17.97
2023-05-11T17:30:16.276Z,19.97
2023-05-11T17:32:43.348Z,18.27
2023-05-11T17:35:10.332Z,18.80
2023-05-11T17:37:36.979Z,19.23
2023-05-11T17:40:05.503Z,20.13
2023-05-11T17:42:32.159Z,21.70
2023-05-11T17:44:58.760Z,24.10
2023-05-11T17:47:25.963Z,26.77
2023-05-11T17:49:52.675Z,23.80
2023-05-11T17:52:19.304Z,22.87
2023-05-11T17:54:46.001Z,29.13
2023-05-11T17:57:12.640Z,28.30
2023-05-11T17:59:39.235Z,24.63
2023-05-11T18:02:07.371Z,29.00
2023-05-11T18:04:33.988Z,23.83
2023-05-11T18:07:00.773Z,27.33
2023-05-11T18:09:27.349Z,27.97
2023-05-11T18:11:54.005Z,25.07
2023-05-11T18:14:20.892Z,25.93
2023-05-11T18:16:49.214Z,28.57
2023-05-11T18:19:16.017Z,23.93
2023-05-11T18:21:42.798Z,24.67
2023-05-11T18:24:09.630Z,19.73
2023-05-11T18:26:36.652Z,23.67
2023-05-11T18:29:03.274Z,22.60
2023-05-11T18:31:30.236Z,22.47
2023-05-11T18:33:56.968Z,20.47
2023-05-11T18:36:23.815Z,18.00
2023-05-11T18:38:50.571Z,21.87
2023-05-11T18:41:17.868Z,18.67
2023-05-11T18:43:44.635Z,18.93
2023-05-11T18:46:11.273Z,22.87
2023-05-11T18:48:38.925Z,24.73
2023-05-11T18:51:06.218Z,21.93
2023-05-11T18:53:33.381Z,20.30
2023-05-11T18:56:00.035Z,20.40
2023-05-11T18:58:26.933Z,20.50
2023-05-11T19:00:53.662Z,22.77
2023-05-11T19:03:21.757Z,23.77
2023-05-11T19:05:49.367Z,24.03
2023-05-11T19:08:16.548Z,23.57
2023-05-11T19:10:45.103Z,24.97
2023-05-11T19:13:12.923Z,28.00
2023-05-11T19:15:40.159Z,27.53
2023-05-11T19:18:06.928Z,27.70
2023-05-11T19:20:34.081Z,26.80
2023-05-11T19:23:00.810Z,26.80
2023-05-11T19:25:28.218Z,26.07
2023-05-11T19:27:56.974Z,27.33
2023-05-11T19:30:24.621Z,29.67
2023-05-11T19:32:51.279Z,28.60
2023-05-11T19:35:18.898Z,24.60
2023-05-11T19:37:47.958Z,29.50
2023-05-11T19:42:46.318Z,29.70
2023-05-11T19:45:14.880Z,32.10
2023-05-11T19:47:41.583Z,27.40
2023-05-11T19:50:09.155Z,26.93
2023-05-11T19:52:36.599Z,29.00
2023-05-11T19:55:04.242Z,29.13
2023-05-11T19:57:33.199Z,35.13
2023-05-11T20:00:01.562Z,28.60
2023-05-11T20:02:31.789Z,30.57
2023-05-11T20:04:59.042Z,35.97
2023-05-11T20:07:27.377Z,28.87
2023-05-11T20:09:54.596Z,27.10
2023-05-11T20:12:21.251Z,35.47
2023-05-11T20:14:47.855Z,31.33
2023-05-11T20:17:14.548Z,32.13
2023-05-11T20:19:41.249Z,36.10
2023-05-11T20:22:07.835Z,33.27
2023-05-11T20:24:34.422Z,33.60
2023-05-11T20:27:05.538Z,33.20
2023-05-11T20:29:32.137Z,32.77
2023-05-11T20:31:58.816Z,40.93
2023-05-11T20:34:25.483Z,33.47
2023-05-11T20:36:53.725Z,39.83
2023-05-11T20:39:21.902Z,32.53
2023-05-11T20:41:49.989Z,32.33
2023-05-11T20:44:17.675Z,36.43
2023-05-11T20:46:45.832Z,33.40
2023-05-11T20:49:16.734Z,30.77
2023-05-11T20:51:51.328Z,34.17
2023-05-11T20:54:18.066Z,33.77
2023-05-11T20:56:44.940Z,40.90
2023-05-11T21:00:03.840Z,32.77
2023-05-11T21:01:58.981Z,32.00
2023-05-11T21:04:25.677Z,34.83
2023-05-11T21:06:55.742Z,34.43
2023-05-11T21:09:22.346Z,35.90
2023-05-11T21:11:49.015Z,30.70
2023-05-11T21:14:16.288Z,30.47
2023-05-11T21:16:42.990Z,30.37
2023-05-11T21:19:09.796Z,32.33
2023-05-11T21:21:36.631Z,37.07
2023-05-11T21:24:04.043Z,29.87
2023-05-11T21:26:30.722Z,31.43
2023-05-11T21:28:57.544Z,32.20
2023-05-11T21:31:24.219Z,33.10
2023-05-11T21:33:51.781Z,33.40
2023-05-11T21:36:18.492Z,32.70
2023-05-11T21:38:45.124Z,34.77
2023-05-11T21:41:11.828Z,32.87
2023-05-11T21:43:38.456Z,37.23
2023-05-11T21:46:05.217Z,36.73
2023-05-11T21:48:31.906Z,30.30
2023-05-11T21:50:58.523Z,33.20
2023-05-11T21:53:25.733Z,31.07
2023-05-11T21:55:52.341Z,37.17
2023-05-11T21:58:19.059Z,34.53
2023-05-11T22:00:46.283Z,33.50
2023-05-11T22:03:13.178Z,35.20
2023-05-11T22:05:39.884Z,32.50
2023-05-11T22:08:14.860Z,30.30
2023-05-11T22:10:42.904Z,37.27
2023-05-11T22:13:09.766Z,30.73
2023-05-11T22:15:36.510Z,29.43
2023-05-11T22:18:03.470Z,33.20
2023-05-11T22:20:31.600Z,31.20
2023-05-11T22:22:58.948Z,34.73
2023-05-11T22:25:25.622Z,33.87
2023-05-11T22:27:52.542Z,41.30
2023-05-11T22:30:19.729Z,32.07
2023-05-11T22:32:47.144Z,34.87
2023-05-11T22:35:13.963Z,31.80
2023-05-11T22:37:40.612Z,38.53
2023-05-11T22:40:07.802Z,38.50
2023-05-11T22:42:34.699Z,37.40
2023-05-11T22:45:01.328Z,33.70
2023-05-11T22:47:28.150Z,35.10
2023-05-11T22:49:54.839Z,35.67
2023-05-11T22:52:22.556Z,36.30
2023-05-11T22:54:54.532Z,34.10
2023-05-11T22:57:23.818Z,38.43
2023-05-11T22:59:50.567Z,36.33
2023-05-11T23:02:17.254Z,38.17
2023-05-11T23:04:48.362Z,34.93
2023-05-11T23:07:14.931Z,38.10
2023-05-11T23:09:41.535Z,40.73
2023-05-11T23:12:08.494Z,33.10
2023-05-11T23:14:35.792Z,33.40
2023-05-11T23:17:02.453Z,37.43
2023-05-11T23:19:29.140Z,37.73
2023-05-11T23:21:56.632Z,33.70
2023-05-11T23:24:23.261Z,37.43
2023-05-11T23:26:49.849Z,36.57
2023-05-11T23:29:16.501Z,30.37
2023-05-11T23:31:43.644Z,32.17
2023-05-11T23:34:10.326Z,33.70
2023-05-11T23:36:36.948Z,33.90
2023-05-11T23:39:03.908Z,32.20
2023-05-11T23:41:30.695Z,31.10
2023-05-11T23:43:57.307Z,32.03
2023-05-11T23:46:25.078Z,32.77
2023-05-11T23:48:51.810Z,35.07
2023-05-11T23:51:18.471Z,28.50
2023-05-11T23:53:46.417Z,30.57
2023-05-11T23:56:13.207Z,27.70
2023-05-11T23:58:41.333Z,29.13
